createdAt,value
2023-03-10T00:01:30.837Z,14.57
2023-03-10T00:03:58.850Z,8.95
2023-03-10T00:06:28.343Z,9.00
2023-03-10T00:08:56.099Z,9.52
2023-03-10T00:11:23.216Z,7.18
2023-03-10T00:13:50.137Z,9.48
2023-03-10T00:16:23.185Z,9.60
2023-03-10T00:18:50.486Z,7.78
2023-03-10T00:21:20.311Z,7.95
2023-03-10T00:23:47.397Z,11.00
2023-03-10T00:26:19.397Z,9.05
2023-03-10T00:28:46.953Z,8.27
2023-03-10T00:31:16.919Z,7.72
2023-03-10T00:33:43.923Z,15.85
2023-03-10T00:36:22.236Z,13.95
2023-03-10T00:38:50.213Z,9.00
2023-03-10T00:41:20.896Z,9.38
2023-03-10T00:43:48.151Z,14.35
2023-03-10T00:46:15.322Z,8.65
2023-03-10T00:48:42.234Z,8.05
2023-03-10T00:51:09.532Z,7.28
2023-03-10T00:53:39.007Z,9.18
2023-03-10T00:56:17.996Z,8.73
2023-03-10T00:58:46.629Z,10.32
2023-03-10T01:01:26.723Z,10.43
2023-03-10T01:03:55.918Z,7.47
2023-03-10T01:06:23.350Z,9.45
2023-03-10T01:08:50.402Z,7.65
2023-03-10T01:11:19.546Z,9.35
2023-03-10T01:13:47.079Z,9.05
2023-03-10T01:16:14.269Z,12.10
2023-03-10T01:18:41.122Z,7.35
2023-03-10T01:21:14.170Z,14.50
2023-03-10T01:23:40.958Z,8.05
2023-03-10T01:26:07.821Z,8.80
2023-03-10T01:28:34.602Z,12.45
2023-03-10T01:31:01.576Z,8.38
2023-03-10T01:33:28.473Z,7.20
2023-03-10T01:35:55.375Z,10.07
2023-03-10T01:38:22.180Z,9.25
2023-03-10T01:40:50.289Z,9.02
2023-03-10T01:43:20.199Z,10.38
2023-03-10T01:45:47.047Z,9.13
2023-03-10T01:48:15.554Z,8.98
2023-03-10T01:50:45.436Z,8.93
2023-03-10T01:53:14.431Z,8.23
2023-03-10T01:55:46.687Z,9.35
2023-03-10T01:58:16.829Z,9.23
2023-03-10T02:00:44.172Z,8.95
2023-03-10T02:03:24.680Z,7.75
2023-03-10T02:06:10.095Z,10.32
2023-03-10T02:08:46.375Z,7.00
2023-03-10T02:11:15.078Z,10.25
2023-03-10T02:13:41.898Z,9.45
2023-03-10T02:16:09.035Z,9.55
2023-03-10T02:18:36.014Z,14.05
2023-03-10T02:21:08.955Z,9.68
2023-03-10T02:24:14.790Z,13.10
2023-03-10T02:27:01.237Z,11.93
2023-03-10T02:29:59.147Z,10.73
2023-03-10T02:32:29.432Z,9.63
2023-03-10T02:34:56.413Z,10.57
2023-03-10T02:37:28.155Z,10.43
2023-03-10T02:39:55.110Z,15.20
2023-03-10T02:42:25.212Z,13.75
2023-03-10T02:44:52.934Z,13.65
2023-03-10T02:47:20.484Z,12.80
2023-03-10T02:49:47.611Z,10.15
2023-03-10T02:52:43.590Z,13.10
2023-03-10T02:55:19.656Z,10.85
2023-03-10T02:57:46.476Z,11.57
2023-03-10T03:00:13.773Z,8.02
2023-03-10T03:02:40.671Z,17.58
2023-03-10T03:05:08.113Z,12.10
2023-03-10T03:07:34.941Z,8.85
2023-03-10T03:10:02.292Z,10.77
2023-03-10T03:12:29.082Z,11.63
2023-03-10T03:14:56.101Z,13.85
2023-03-10T03:17:23.432Z,14.07
2023-03-10T03:19:50.233Z,13.27
2023-03-10T03:22:16.993Z,12.30
2023-03-10T03:24:43.837Z,10.32
2023-03-10T03:27:10.620Z,11.38
2023-03-10T03:29:37.433Z,13.68
2023-03-10T03:32:04.637Z,12.38
2023-03-10T03:34:31.515Z,13.88
2023-03-10T03:36:58.396Z,9.43
2023-03-10T03:39:25.247Z,13.23
2023-03-10T03:41:57.309Z,10.90
2023-03-10T03:44:24.151Z,11.75
2023-03-10T03:46:50.962Z,12.75
2023-03-10T03:49:17.747Z,14.23
2023-03-10T03:51:44.620Z,12.00
2023-03-10T03:54:11.514Z,12.82
2023-03-10T03:56:38.410Z,13.68
2023-03-10T03:59:05.848Z,11.10
2023-03-10T04:01:32.805Z,14.50
2023-03-10T04:03:59.608Z,13.68
2023-03-10T04:06:26.425Z,12.95
2023-03-10T04:08:53.335Z,10.18
2023-03-10T04:11:20.117Z,16.58
2023-03-10T04:13:47.020Z,11.30
2023-03-10T04:16:13.972Z,12.57
2023-03-10T04:18:41.404Z,13.63
2023-03-10T04:21:08.195Z,17.65
2023-03-10T04:23:35.014Z,14.13
2023-03-10T04:26:01.811Z,19.05
2023-03-10T04:28:28.567Z,12.05
2023-03-10T04:30:55.411Z,16.10
2023-03-10T04:33:22.260Z,16.70
2023-03-10T04:35:51.468Z,14.80
2023-03-10T04:38:18.668Z,13.13
2023-03-10T04:40:45.593Z,15.30
2023-03-10T04:43:12.432Z,13.48
2023-03-10T04:45:39.223Z,13.13
2023-03-10T04:48:06.126Z,14.05
2023-03-10T04:50:32.917Z,13.80
2023-03-10T04:52:59.703Z,14.35
2023-03-10T04:55:26.468Z,15.95
2023-03-10T04:57:53.363Z,12.45
2023-03-10T05:00:20.424Z,14.13
2023-03-10T05:02:47.256Z,16.30
2023-03-10T05:05:14.237Z,14.57
2023-03-10T05:07:41.061Z,16.63
2023-03-10T05:10:08.148Z,14.05
2023-03-10T05:12:34.960Z,12.45
2023-03-10T05:15:01.820Z,16.10
2023-03-10T05:17:29.438Z,15.93
2023-03-10T05:19:57.936Z,11.10
2023-03-10T05:22:24.691Z,12.00
2023-03-10T05:24:51.890Z,17.65
2023-03-10T05:27:19.901Z,13.00
2023-03-10T05:29:47.152Z,17.13
2023-03-10T05:32:13.929Z,13.23
2023-03-10T05:34:40.730Z,14.98
2023-03-10T05:37:07.502Z,13.52
2023-03-10T05:39:34.357Z,14.27
2023-03-10T05:42:01.145Z,15.65
2023-03-10T05:44:27.921Z,18.23
2023-03-10T05:46:54.951Z,16.13
2023-03-10T05:49:21.820Z,19.58
2023-03-10T05:51:49.221Z,17.50
2023-03-10T05:54:16.810Z,14.57
2023-03-10T05:56:43.611Z,19.60
2023-03-10T05:59:10.497Z,16.13
2023-03-10T06:01:37.510Z,17.05
2023-03-10T06:04:04.753Z,18.33
2023-03-10T06:06:31.803Z,18.80
2023-03-10T06:08:58.623Z,18.85
2023-03-10T06:11:25.436Z,20.83
2023-03-10T06:13:52.499Z,19.30
2023-03-10T06:16:19.696Z,18.30
2023-03-10T06:18:46.526Z,18.33
2023-03-10T06:21:14.900Z,21.70
2023-03-10T06:23:41.758Z,20.92
2023-03-10T06:26:12.489Z,20.95
2023-03-10T06:28:41.982Z,21.27
2023-03-10T06:31:14.653Z,24.88
2023-03-10T06:33:41.507Z,24.88
2023-03-10T06:36:10.908Z,21.25
2023-03-10T06:38:38.663Z,27.58
2023-03-10T06:41:06.023Z,24.88
2023-03-10T06:43:33.775Z,20.98
2023-03-10T06:46:04.530Z,21.35
2023-03-10T06:48:31.475Z,25.55
2023-03-10T06:50:58.305Z,21.42
2023-03-10T06:53:26.996Z,18.95
2023-03-10T06:56:05.672Z,18.33
2023-03-10T06:58:34.734Z,21.45
2023-03-10T07:01:01.888Z,21.25
2023-03-10T07:03:29.346Z,20.30
2023-03-10T07:05:59.839Z,23.10
2023-03-10T07:08:30.089Z,25.63
2023-03-10T07:10:57.281Z,26.50
2023-03-10T07:13:24.114Z,19.40
2023-03-10T07:15:51.111Z,23.95
2023-03-10T07:18:17.932Z,23.60
2023-03-10T07:20:45.241Z,23.90
2023-03-10T07:23:12.783Z,24.30
2023-03-10T07:25:39.748Z,22.25
2023-03-10T07:28:07.461Z,31.08
2023-03-10T07:30:34.687Z,21.20
2023-03-10T07:33:01.492Z,22.95
2023-03-10T07:35:28.265Z,25.48
2023-03-10T07:37:55.081Z,23.17
2023-03-10T07:40:25.234Z,25.27
2023-03-10T07:42:54.784Z,25.27
2023-03-10T07:45:23.524Z,27.45
2023-03-10T07:47:51.873Z,26.15
2023-03-10T07:50:20.075Z,31.10
2023-03-10T07:52:47.356Z,28.63
2023-03-10T07:55:14.171Z,29.17
2023-03-10T07:57:41.071Z,35.80
2023-03-10T08:00:09.280Z,30.15
2023-03-10T08:02:36.202Z,30.38
2023-03-10T08:05:03.044Z,31.67
2023-03-10T08:07:30.546Z,39.20
2023-03-10T08:09:57.391Z,32.42
2023-03-10T08:12:24.411Z,30.02
2023-03-10T08:14:52.091Z,36.83
2023-03-10T08:17:19.767Z,33.78
2023-03-10T08:19:46.529Z,34.92
2023-03-10T08:22:13.336Z,36.50
2023-03-10T08:24:40.428Z,40.95
2023-03-10T08:27:07.289Z,28.50
2023-03-10T08:29:34.281Z,32.20
2023-03-10T08:32:01.202Z,32.33
2023-03-10T08:34:32.698Z,35.58
2023-03-10T08:37:00.923Z,34.22
2023-03-10T08:39:28.820Z,32.60
2023-03-10T08:41:56.150Z,36.80
2023-03-10T08:44:23.160Z,35.17
2023-03-10T08:46:51.192Z,34.97
2023-03-10T08:49:20.103Z,35.28
2023-03-10T08:51:47.119Z,37.30
2023-03-10T08:54:16.608Z,37.42
2023-03-10T08:56:44.068Z,36.55
2023-03-10T08:59:10.861Z,29.50
2023-03-10T09:01:38.876Z,34.35
2023-03-10T09:04:08.219Z,39.38
2023-03-10T09:06:36.432Z,31.77
2023-03-10T09:09:05.235Z,27.13
2023-03-10T09:11:35.899Z,32.85
2023-03-10T09:14:04.529Z,31.50
2023-03-10T09:16:31.598Z,32.45
2023-03-10T09:18:59.269Z,30.25
2023-03-10T09:21:27.337Z,30.20
2023-03-10T09:23:54.560Z,25.08
2023-03-10T09:26:22.067Z,25.80
2023-03-10T09:28:51.150Z,29.88
2023-03-10T09:31:21.668Z,30.88
2023-03-10T09:33:48.751Z,28.88
2023-03-10T09:36:16.366Z,29.27
2023-03-10T09:38:43.662Z,29.27
2023-03-10T09:41:49.338Z,34.00
2023-03-10T09:44:30.939Z,29.40
2023-03-10T09:47:09.629Z,27.60
2023-03-10T09:49:59.455Z,28.52
2023-03-10T09:52:26.174Z,25.38
2023-03-10T09:55:01.755Z,28.42
2023-03-10T09:57:29.510Z,27.75
2023-03-10T10:00:00.649Z,23.55
2023-03-10T10:02:34.453Z,25.67
2023-03-10T10:05:06.961Z,27.30
2023-03-10T10:07:46.677Z,28.95
2023-03-10T10:10:29.519Z,25.00
2023-03-10T10:13:01.239Z,28.10
2023-03-10T10:15:32.886Z,24.00
2023-03-10T10:18:18.061Z,27.60
2023-03-10T10:21:19.153Z,27.45
2023-03-10T10:23:52.884Z,29.23
2023-03-10T10:26:26.988Z,24.92
2023-03-10T10:29:17.469Z,27.33
2023-03-10T10:32:11.820Z,24.63
2023-03-10T10:34:44.048Z,28.23
2023-03-10T10:37:42.845Z,24.77
2023-03-10T10:40:25.683Z,25.15
2023-03-10T10:42:57.698Z,24.67
2023-03-10T10:45:32.865Z,23.00
2023-03-10T10:48:00.526Z,25.92
2023-03-10T10:50:28.489Z,26.77
2023-03-10T10:53:21.718Z,28.75
2023-03-10T10:56:00.759Z,24.95
2023-03-10T10:58:39.208Z,24.90
2023-03-10T11:01:08.806Z,25.05
2023-03-10T11:03:41.375Z,22.05
2023-03-10T11:06:14.531Z,22.80
2023-03-10T11:08:45.177Z,27.15
2023-03-10T11:11:53.861Z,23.15
2023-03-10T11:14:46.064Z,23.08
2023-03-10T11:17:34.983Z,26.08
2023-03-10T11:20:23.718Z,22.77
2023-03-10T11:23:02.675Z,24.10
2023-03-10T11:25:36.974Z,26.17
2023-03-10T11:28:15.925Z,21.55
2023-03-10T11:31:13.464Z,30.08
2023-03-10T11:33:46.732Z,26.30
2023-03-10T11:36:13.541Z,28.27
2023-03-10T11:38:43.565Z,22.23
2023-03-10T11:41:20.197Z,24.92
2023-03-10T11:44:13.576Z,27.52
2023-03-10T11:47:16.214Z,25.77
2023-03-10T11:49:47.360Z,23.27
2023-03-10T11:52:18.822Z,19.13
2023-03-10T11:54:54.389Z,23.77
2023-03-10T11:57:23.555Z,25.15
2023-03-10T11:59:55.487Z,21.23
2023-03-10T12:02:28.615Z,29.75
2023-03-10T12:05:08.497Z,22.52
2023-03-10T12:07:42.725Z,18.30
2023-03-10T12:10:12.595Z,21.00
2023-03-10T12:12:41.686Z,20.10
2023-03-10T12:15:29.090Z,20.10
2023-03-10T12:17:56.380Z,16.88
2023-03-10T12:20:26.420Z,17.83
2023-03-10T12:22:56.094Z,19.13
2023-03-10T12:25:33.280Z,16.38
2023-03-10T12:28:27.417Z,13.55
2023-03-10T12:31:00.185Z,12.63
2023-03-10T12:33:42.338Z,10.68
2023-03-10T12:36:11.683Z,11.18
2023-03-10T12:38:48.966Z,13.77
2023-03-10T12:41:28.156Z,11.95
2023-03-10T12:44:21.142Z,12.50
2023-03-10T12:47:07.864Z,10.82
2023-03-10T12:49:40.805Z,12.70
2023-03-10T12:52:10.409Z,13.13
2023-03-10T12:54:55.857Z,16.83
2023-03-10T12:57:34.255Z,13.40
2023-03-10T13:00:36.727Z,15.80
2023-03-10T13:03:09.749Z,10.90
2023-03-10T13:05:56.992Z,11.10
2023-03-10T13:08:45.113Z,11.80
2023-03-10T13:11:24.616Z,23.87
2023-03-10T13:13:57.621Z,8.10
2023-03-10T13:16:24.405Z,11.07
2023-03-10T13:18:53.424Z,9.30
2023-03-10T13:21:26.491Z,10.13
2023-03-10T13:23:53.547Z,8.40
2023-03-10T13:26:21.916Z,7.10
2023-03-10T13:29:17.127Z,11.63
2023-03-10T13:31:54.122Z,8.67
2023-03-10T13:34:23.641Z,11.93
2023-03-10T13:36:50.466Z,9.20
2023-03-10T13:39:22.403Z,7.80
2023-03-10T13:41:53.731Z,8.17
2023-03-10T13:44:24.118Z,8.60
2023-03-10T13:46:53.630Z,9.13
2023-03-10T13:49:25.598Z,7.00
2023-03-10T13:51:58.671Z,10.70
2023-03-10T13:54:33.579Z,6.60
2023-03-10T13:57:03.387Z,8.23
2023-03-10T13:59:31.785Z,11.50
2023-03-10T14:02:00.874Z,8.63
2023-03-10T14:04:48.937Z,7.00
2023-03-10T14:07:18.497Z,7.03
2023-03-10T14:10:10.501Z,7.90
2023-03-10T14:12:51.520Z,7.70
2023-03-10T14:15:27.429Z,8.70
2023-03-10T14:18:06.464Z,8.33
2023-03-10T14:20:36.433Z,6.03
2023-03-10T14:23:26.506Z,6.77
2023-03-10T14:25:57.804Z,9.60
2023-03-10T14:28:32.557Z,7.40
2023-03-10T14:31:04.722Z,13.10
2023-03-10T14:33:31.525Z,5.27
2023-03-10T14:35:58.381Z,8.47
2023-03-10T14:38:25.203Z,7.37
2023-03-10T14:40:55.498Z,6.83
2023-03-10T14:43:28.907Z,8.20
2023-03-10T14:45:58.808Z,8.90
2023-03-10T14:48:29.061Z,9.97
2023-03-10T14:50:57.042Z,6.07
2023-03-10T14:53:25.725Z,11.63
2023-03-10T14:55:55.976Z,6.90
2023-03-10T14:58:40.944Z,10.20
2023-03-10T15:01:07.781Z,5.60
2023-03-10T15:03:34.630Z,7.17
2023-03-10T15:06:02.597Z,6.93
2023-03-10T15:08:30.643Z,6.17
2023-03-10T15:10:57.751Z,3.20
2023-03-10T15:13:25.052Z,7.20
2023-03-10T15:15:52.289Z,4.10
2023-03-10T15:18:21.710Z,4.40
2023-03-10T15:20:49.264Z,3.87
2023-03-10T15:23:19.396Z,5.50
2023-03-10T15:25:49.805Z,5.60
2023-03-10T15:28:16.618Z,7.63
2023-03-10T15:30:43.493Z,12.30
2023-03-10T15:33:13.631Z,4.70
2023-03-10T15:35:41.517Z,3.73
2023-03-10T15:38:10.197Z,8.90
2023-03-10T15:40:38.852Z,2.40
2023-03-10T15:43:05.621Z,6.43
2023-03-10T15:45:32.620Z,3.30
2023-03-10T15:47:59.873Z,8.57
2023-03-10T15:50:27.003Z,5.17
2023-03-10T15:52:56.397Z,4.90
2023-03-10T15:55:24.179Z,6.63
2023-03-10T15:57:51.456Z,7.87
2023-03-10T16:00:20.650Z,4.50
2023-03-10T16:02:48.028Z,4.67
2023-03-10T16:05:15.440Z,10.73
2023-03-10T16:07:42.238Z,6.87
2023-03-10T16:10:15.568Z,3.13
2023-03-10T16:12:42.506Z,6.63
2023-03-10T16:15:09.983Z,5.20
2023-03-10T16:17:36.858Z,7.47
2023-03-10T16:20:10.292Z,4.03
2023-03-10T16:22:40.536Z,9.53
2023-03-10T16:25:10.198Z,9.43
2023-03-10T16:27:37.091Z,7.10
2023-03-10T16:30:05.103Z,5.03
2023-03-10T16:32:32.099Z,4.60
2023-03-10T16:35:00.110Z,6.97
2023-03-10T16:37:28.358Z,7.07
2023-03-10T16:39:56.346Z,4.78
2023-03-10T16:42:23.918Z,11.40
2023-03-10T16:44:50.796Z,11.57
2023-03-10T16:47:18.174Z,5.87
2023-03-10T16:49:45.577Z,8.82
2023-03-10T16:52:12.393Z,6.43
2023-03-10T16:54:39.345Z,9.13
2023-03-10T16:57:07.133Z,10.43
2023-03-10T16:59:34.001Z,9.15
2023-03-10T17:02:00.906Z,7.43
2023-03-10T17:04:28.265Z,6.38
2023-03-10T17:07:00.043Z,11.73
2023-03-10T17:09:27.505Z,8.23
2023-03-10T17:11:56.842Z,18.43
2023-03-10T17:14:24.796Z,5.22
2023-03-10T17:17:00.358Z,5.50
2023-03-10T17:19:30.357Z,6.23
2023-03-10T17:22:03.643Z,7.15
2023-03-10T17:24:31.711Z,9.02
2023-03-10T17:27:07.514Z,8.25
2023-03-10T17:29:34.720Z,12.52
2023-03-10T17:32:14.481Z,8.87
2023-03-10T17:34:42.173Z,7.15
2023-03-10T17:37:12.011Z,8.88
2023-03-10T17:39:42.779Z,8.32
2023-03-10T17:42:15.875Z,9.00
2023-03-10T17:44:45.498Z,12.20
2023-03-10T17:47:20.320Z,7.57
2023-03-10T17:49:49.225Z,7.35
2023-03-10T17:52:27.783Z,11.23
2023-03-10T17:54:57.701Z,11.82
2023-03-10T17:57:27.705Z,6.70
2023-03-10T18:00:01.313Z,11.07
2023-03-10T18:02:30.848Z,7.72
2023-03-10T18:05:00.197Z,7.13
2023-03-10T18:07:27.766Z,6.53
2023-03-10T18:09:56.754Z,11.15
2023-03-10T18:12:23.788Z,10.05
2023-03-10T18:14:51.001Z,7.63
2023-03-10T18:17:29.139Z,10.23
2023-03-10T18:20:04.232Z,13.75
2023-03-10T18:22:40.142Z,6.80
2023-03-10T18:25:07.521Z,6.47
2023-03-10T18:27:35.869Z,6.53
2023-03-10T18:30:05.729Z,11.00
2023-03-10T18:32:37.091Z,10.90
2023-03-10T18:35:07.511Z,13.50
2023-03-10T18:37:34.856Z,10.50
2023-03-10T18:40:02.540Z,12.50
2023-03-10T18:42:35.799Z,11.77
2023-03-10T18:45:12.502Z,12.90
2023-03-10T18:47:39.956Z,12.02
2023-03-10T18:50:11.362Z,13.82
2023-03-10T18:53:06.164Z,9.45
2023-03-10T18:55:50.721Z,13.88
2023-03-10T18:58:18.240Z,14.77
2023-03-10T19:00:56.520Z,13.85
2023-03-10T19:03:34.385Z,10.93
2023-03-10T19:06:07.696Z,11.32
2023-03-10T19:08:39.695Z,10.02
2023-03-10T19:11:07.412Z,12.77
2023-03-10T19:13:34.938Z,10.80
2023-03-10T19:16:12.894Z,12.48
2023-03-10T19:18:49.352Z,9.68
2023-03-10T19:21:23.116Z,12.98
2023-03-10T19:23:53.680Z,14.00
2023-03-10T19:26:20.825Z,9.63
2023-03-10T19:29:01.297Z,14.88
2023-03-10T19:31:30.824Z,18.90
2023-03-10T19:34:00.184Z,10.02
2023-03-10T19:36:31.575Z,11.50
2023-03-10T19:39:07.469Z,12.77
2023-03-10T19:41:34.539Z,16.08
2023-03-10T19:44:02.853Z,14.38
2023-03-10T19:46:33.449Z,11.02
2023-03-10T19:49:05.190Z,9.95
2023-03-10T19:51:41.271Z,23.90
2023-03-10T19:54:11.428Z,20.30
2023-03-10T19:56:41.591Z,17.15
2023-03-10T19:59:23.900Z,24.80
2023-03-10T20:01:53.705Z,28.00
2023-03-10T20:04:20.869Z,24.00
2023-03-10T20:06:50.263Z,23.55
2023-03-10T20:09:19.203Z,19.30
2023-03-10T20:11:48.801Z,25.75
2023-03-10T20:14:15.964Z,23.67
2023-03-10T20:16:53.292Z,28.95
2023-03-10T20:19:22.932Z,20.83
2023-03-10T20:21:55.863Z,24.50
2023-03-10T20:24:28.305Z,21.23
2023-03-10T20:26:58.629Z,22.02
2023-03-10T20:29:48.326Z,22.15
2023-03-10T20:32:34.045Z,24.23
2023-03-10T20:35:04.261Z,24.02
2023-03-10T20:37:36.169Z,21.38
2023-03-10T20:40:30.611Z,23.90
2023-03-10T20:43:03.848Z,20.15
2023-03-10T20:45:31.884Z,19.60
2023-03-10T20:48:09.182Z,23.40
2023-03-10T20:50:42.757Z,27.30
2023-03-10T20:53:10.944Z,32.22
2023-03-10T20:55:38.133Z,31.83
2023-03-10T20:58:09.098Z,32.55
2023-03-10T21:00:37.988Z,28.98
2023-03-10T21:03:14.573Z,31.05
2023-03-10T21:08:41.082Z,25.35
2023-03-10T21:11:19.973Z,27.42
2023-03-10T21:13:54.767Z,28.05
2023-03-10T21:16:36.647Z,28.27
2023-03-10T21:19:09.182Z,34.30
2023-03-10T21:21:42.899Z,39.70
2023-03-10T21:24:12.903Z,26.83
2023-03-10T21:26:39.767Z,30.25
2023-03-10T21:29:06.591Z,37.15
2023-03-10T21:31:33.338Z,36.25
2023-03-10T21:34:00.166Z,31.35
2023-03-10T21:36:27.068Z,33.95
2023-03-10T21:38:53.858Z,36.97
2023-03-10T21:41:26.613Z,37.35
2023-03-10T21:43:54.583Z,32.85
2023-03-10T21:46:21.603Z,37.30
2023-03-10T21:48:48.645Z,29.05
2023-03-10T21:51:17.687Z,27.33
2023-03-10T21:53:45.621Z,34.35
2023-03-10T21:56:12.780Z,32.40
2023-03-10T21:58:39.666Z,36.13
2023-03-10T22:01:07.682Z,28.95
2023-03-10T22:03:35.268Z,25.45
2023-03-10T22:06:04.888Z,30.90
2023-03-10T22:08:33.395Z,26.02
2023-03-10T22:11:01.109Z,32.53
2023-03-10T22:13:28.289Z,26.83
2023-03-10T22:15:55.121Z,23.98
2023-03-10T22:18:22.064Z,25.13
2023-03-10T22:20:48.840Z,20.00
2023-03-10T22:23:15.838Z,31.65
2023-03-10T22:25:42.628Z,25.27
2023-03-10T22:28:09.680Z,24.20
2023-03-10T22:30:36.561Z,25.17
2023-03-10T22:33:03.435Z,26.17
2023-03-10T22:35:30.303Z,27.35
2023-03-10T22:37:57.190Z,33.47
2023-03-10T22:40:25.433Z,32.17
2023-03-10T22:42:52.948Z,29.85
2023-03-10T22:45:26.627Z,38.60
2023-03-10T22:47:57.363Z,30.02
2023-03-10T22:50:33.854Z,27.75
2023-03-10T22:53:02.936Z,28.00
2023-03-10T22:55:35.040Z,28.90
2023-03-10T22:58:07.104Z,25.42
2023-03-10T23:00:35.019Z,29.27
2023-03-10T23:03:02.544Z,26.17
2023-03-10T23:05:29.471Z,23.67
2023-03-10T23:07:57.480Z,26.87
2023-03-10T23:10:30.077Z,24.20
2023-03-10T23:12:59.900Z,24.23
2023-03-10T23:15:29.668Z,23.80
2023-03-10T23:17:57.430Z,36.57
2023-03-10T23:20:27.623Z,27.00
2023-03-10T23:22:56.939Z,23.17
2023-03-10T23:25:30.439Z,23.25
2023-03-10T23:27:57.485Z,25.08
2023-03-10T23:30:24.961Z,20.05
2023-03-10T23:32:52.501Z,22.83
2023-03-10T23:35:22.797Z,19.35
2023-03-10T23:37:49.780Z,23.35
2023-03-10T23:40:18.909Z,18.77
2023-03-10T23:42:46.517Z,21.27
2023-03-10T23:45:19.168Z,19.42
2023-03-10T23:47:47.247Z,19.83
2023-03-10T23:50:28.244Z,23.80
2023-03-10T23:52:55.643Z,27.98
2023-03-10T23:55:25.452Z,20.27
2023-03-10T23:57:52.904Z,24.80
